Time;durP1;ratioP1;P1;durP2;ratioP2;P2;SDS_P1;SDS_P2;PMS_P1;PMS_P2;Temp;Humidity;BMP_temperature;BMP_pressure;BME280_temperature;BME280_humidity;BME280_pressure;Samples;Min_cycle;Max_cycle;Signal;HPM_P1;HPM_P2
2022/05/25 00:02:05;;;;;;;1.60;1.50;;;;;;;;;;5073844;28;20041;-87
2022/05/25 00:04:33;;;;;;;1.80;1.40;;;;;;;;;;5073646;28;20083;-87
2022/05/25 00:07:00;;;;;;;2.20;1.15;;;;;;;;;;5073617;28;20477;-87
2022/05/25 00:09:28;;;;;;;1.80;1.30;;;;;;;;;;5089326;28;20048;-87
2022/05/25 00:11:55;;;;;;;1.27;1.23;;;;;;;;;;5089252;28;20071;-86
2022/05/25 00:14:22;;;;;;;1.42;1.10;;;;;;;;;;5089358;28;20586;-85
2022/05/25 00:16:49;;;;;;;2.10;1.10;;;;;;;;;;5089131;28;20083;-87
2022/05/25 00:22:03;;;;;;;3.35;1.13;;;;;;;;;;5073211;28;20056;-87
2022/05/25 00:24:30;;;;;;;1.27;1.17;;;;;;;;;;5089436;28;20079;-85
2022/05/25 00:26:57;;;;;;;4.28;1.55;;;;;;;;;;5089142;28;20082;-87
2022/05/25 00:29:24;;;;;;;3.00;1.65;;;;;;;;;;5088947;28;20147;-87
2022/05/25 00:31:51;;;;;;;4.43;2.13;;;;;;;;;;5089335;28;20135;-86
2022/05/25 00:34:19;;;;;;;2.08;1.30;;;;;;;;;;5073141;28;20052;-87
2022/05/25 00:36:46;;;;;;;2.72;1.00;;;;;;;;;;5073267;28;20135;-87
2022/05/25 00:39:13;;;;;;;2.42;1.52;;;;;;;;;;5073205;28;20049;-87
2022/05/25 00:41:40;;;;;;;2.25;1.33;;;;;;;;;;5089159;28;20127;-87
2022/05/25 00:44:08;;;;;;;1.30;1.20;;;;;;;;;;5088785;28;20048;-87
2022/05/25 00:46:36;;;;;;;2.33;1.30;;;;;;;;;;5088997;28;20135;-86
2022/05/25 00:49:12;;;;;;;4.00;1.60;;;;;;;;;;5088757;28;20051;-87
2022/05/25 00:51:42;;;;;;;3.53;1.33;;;;;;;;;;5089000;28;20404;-87
2022/05/25 00:54:11;;;;;;;1.88;1.50;;;;;;;;;;5088821;28;20146;-87
2022/05/25 00:56:41;;;;;;;1.48;1.30;;;;;;;;;;5088484;28;20131;-85
2022/05/25 00:59:09;;;;;;;1.15;1.15;;;;;;;;;;5088722;28;20084;-86
2022/05/25 01:01:36;;;;;;;2.13;1.35;;;;;;;;;;5088582;28;20056;-87
2022/05/25 01:04:04;;;;;;;1.33;1.23;;;;;;;;;;5073029;28;20463;-86
2022/05/25 01:06:40;;;;;;;1.95;1.30;;;;;;;;;;5088787;28;20045;-87
2022/05/25 01:09:23;;;;;;;2.00;1.10;;;;;;;;;;5088804;28;20045;-86
2022/05/25 01:12:09;;;;;;;1.38;1.27;;;;;;;;;;5088564;28;20110;-87
2022/05/25 01:14:55;;;;;;;1.45;1.45;;;;;;;;;;5088403;28;20509;-87
2022/05/25 01:17:30;;;;;;;2.22;1.77;;;;;;;;;;5088762;28;20071;-86
2022/05/25 01:20:09;;;;;;;2.60;1.40;;;;;;;;;;5088325;28;20041;-87
2022/05/25 01:22:55;;;;;;;1.27;1.13;;;;;;;;;;5072805;28;20091;-87
2022/05/25 01:25:41;;;;;;;1.10;1.10;;;;;;;;;;5088574;28;20084;-86
2022/05/25 01:28:15;;;;;;;1.30;1.30;;;;;;;;;;5072680;28;20076;-87
2022/05/25 01:30:46;;;;;;;3.47;1.50;;;;;;;;;;5088393;28;20420;-87
2022/05/25 01:33:20;;;;;;;4.25;1.35;;;;;;;;;;5072712;28;20040;-87
2022/05/25 01:36:08;;;;;;;1.45;1.38;;;;;;;;;;5088270;28;20094;-87
2022/05/25 01:38:41;;;;;;;2.75;1.45;;;;;;;;;;5088528;28;20475;-87
2022/05/25 01:41:20;;;;;;;1.58;1.48;;;;;;;;;;5088359;28;20135;-87
2022/05/25 01:43:57;;;;;;;1.55;1.55;;;;;;;;;;5088446;28;20056;-87
2022/05/25 01:46:31;;;;;;;2.30;1.60;;;;;;;;;;5088529;28;20083;-87
2022/05/25 01:49:01;;;;;;;6.38;1.58;;;;;;;;;;5089062;28;20052;-87
2022/05/25 01:51:34;;;;;;;3.10;1.60;;;;;;;;;;5076241;28;20083;-87
2022/05/25 01:54:03;;;;;;;1.50;1.40;;;;;;;;;;5076205;28;20087;-87
2022/05/25 01:56:33;;;;;;;1.67;1.58;;;;;;;;;;5091840;28;20202;-87
2022/05/25 01:59:02;;;;;;;2.38;1.60;;;;;;;;;;5092151;28;20083;-86
2022/05/25 02:01:31;;;;;;;5.18;1.40;;;;;;;;;;5076237;28;20048;-87
2022/05/25 02:07:16;;;;;;;3.65;1.55;;;;;;;;;;5075915;28;20059;-87
2022/05/25 02:09:56;;;;;;;1.70;1.60;;;;;;;;;;5031865;28;20055;-87
2022/05/25 02:12:42;;;;;;;3.75;1.65;;;;;;;;;;5091324;28;20135;-87
2022/05/25 02:15:22;;;;;;;3.03;1.50;;;;;;;;;;5091587;28;20072;-87
2022/05/25 02:17:59;;;;;;;4.03;1.63;;;;;;;;;;5091472;28;20053;-87
2022/05/25 02:20:44;;;;;;;3.33;1.83;;;;;;;;;;5091274;28;20080;-87
2022/05/25 02:23:16;;;;;;;4.13;2.03;;;;;;;;;;5091371;28;20195;-87
2022/05/25 02:25:54;;;;;;;3.30;1.83;;;;;;;;;;5091006;28;20049;-87
2022/05/25 02:28:26;;;;;;;2.70;1.73;;;;;;;;;;5075645;28;20087;-87
2022/05/25 02:30:55;;;;;;;1.55;1.48;;;;;;;;;;5090998;28;20071;-86
2022/05/25 02:33:31;;;;;;;3.65;1.67;;;;;;;;;;5075431;28;20080;-85
2022/05/25 02:35:59;;;;;;;2.50;1.38;;;;;;;;;;5090992;28;20496;-87
2022/05/25 02:38:26;;;;;;;2.00;1.90;;;;;;;;;;5091169;28;20059;-86
2022/05/25 02:41:03;;;;;;;3.22;1.88;;;;;;;;;;5090824;28;20461;-86
2022/05/25 02:43:30;;;;;;;1.83;1.60;;;;;;;;;;5090699;28;20054;-86
2022/05/25 02:45:58;;;;;;;1.77;1.50;;;;;;;;;;5074888;28;20062;-87
2022/05/25 02:48:25;;;;;;;3.55;1.83;;;;;;;;;;5091102;28;20489;-87
2022/05/25 02:50:52;;;;;;;2.17;1.98;;;;;;;;;;5090869;28;20135;-87
2022/05/25 02:53:22;;;;;;;3.17;2.00;;;;;;;;;;5075080;28;20415;-87
2022/05/25 02:55:49;;;;;;;2.40;1.70;;;;;;;;;;5090055;28;20058;-87
2022/05/25 02:58:17;;;;;;;1.95;1.85;;;;;;;;;;5090614;28;20496;-87
2022/05/25 03:00:45;;;;;;;4.18;2.30;;;;;;;;;;5074628;28;20041;-87
2022/05/25 03:03:12;;;;;;;2.00;1.90;;;;;;;;;;5074993;28;20076;-86
2022/05/25 03:05:41;;;;;;;3.15;1.67;;;;;;;;;;5090423;28;20040;-87
2022/05/25 03:08:09;;;;;;;3.70;2.22;;;;;;;;;;5090402;28;20122;-87
2022/05/25 03:10:36;;;;;;;3.50;2.42;;;;;;;;;;5090321;28;20135;-86
2022/05/25 03:13:07;;;;;;;2.53;2.03;;;;;;;;;;5090348;28;20048;-86
2022/05/25 03:15:34;;;;;;;2.25;2.05;;;;;;;;;;5090431;28;20076;-86
2022/05/25 03:18:02;;;;;;;3.90;1.60;;;;;;;;;;5090370;28;20087;-86
2022/05/25 03:20:30;;;;;;;2.50;2.10;;;;;;;;;;5074541;28;20140;-87
2022/05/25 03:22:57;;;;;;;2.03;1.90;;;;;;;;;;5090329;28;20127;-87
2022/05/25 03:25:24;;;;;;;3.00;1.83;;;;;;;;;;5089829;28;20686;-87
2022/05/25 03:27:51;;;;;;;1.52;1.50;;;;;;;;;;5074394;28;20047;-87
2022/05/25 03:30:20;;;;;;;1.70;1.52;;;;;;;;;;5074460;28;20131;-86
2022/05/25 03:32:47;;;;;;;2.50;1.80;;;;;;;;;;5089947;28;20044;-87
2022/05/25 03:35:15;;;;;;;6.95;1.92;;;;;;;;;;5073988;28;20046;-86
2022/05/25 03:37:43;;;;;;;2.97;1.30;;;;;;;;;;5089685;28;20132;-86
2022/05/25 03:40:11;;;;;;;7.50;1.60;;;;;;;;;;5089865;28;20049;-87
2022/05/25 03:42:39;;;;;;;2.25;1.50;;;;;;;;;;5073955;28;20546;-86
2022/05/25 03:45:07;;;;;;;2.45;1.70;;;;;;;;;;5073862;28;20045;-87
2022/05/25 03:47:34;;;;;;;4.95;3.35;;;;;;;;;;5072939;28;20079;-87
2022/05/25 03:50:01;;;;;;;2.45;2.28;;;;;;;;;;5089352;28;20056;-86
2022/05/25 03:52:29;;;;;;;2.20;2.00;;;;;;;;;;5089335;28;20098;-86
2022/05/25 03:54:56;;;;;;;1.77;1.50;;;;;;;;;;5089281;28;20048;-87
2022/05/25 03:57:23;;;;;;;1.45;1.30;;;;;;;;;;5073787;28;20430;-87
2022/05/25 03:59:50;;;;;;;2.30;2.10;;;;;;;;;;5073825;28;20081;-87
2022/05/25 04:02:18;;;;;;;4.30;2.45;;;;;;;;;;5072791;28;20405;-87
2022/05/25 04:04:45;;;;;;;3.95;2.50;;;;;;;;;;5072059;28;20048;-86
2022/05/25 04:07:13;;;;;;;2.95;2.70;;;;;;;;;;5072255;28;20481;-86
2022/05/25 04:09:40;;;;;;;2.50;2.30;;;;;;;;;;5073471;28;20052;-86
2022/05/25 04:12:08;;;;;;;3.45;2.40;;;;;;;;;;5073071;28;20666;-86
2022/05/25 04:14:35;;;;;;;2.22;2.13;;;;;;;;;;5072667;28;20132;-86
2022/05/25 04:17:03;;;;;;;3.20;1.65;;;;;;;;;;5073482;28;20045;-87
2022/05/25 04:19:30;;;;;;;2.13;1.55;;;;;;;;;;5071884;28;20095;-86
2022/05/25 04:21:57;;;;;;;1.55;1.48;;;;;;;;;;5072007;28;20053;-84
2022/05/25 04:24:25;;;;;;;1.63;1.52;;;;;;;;;;5073327;28;20052;-86
2022/05/25 04:26:52;;;;;;;3.70;1.60;;;;;;;;;;5071992;28;20123;-87
2022/05/25 04:29:19;;;;;;;2.42;1.27;;;;;;;;;;5072150;28;20556;-87
2022/05/25 04:31:46;;;;;;;2.42;1.75;;;;;;;;;;5071735;28;20198;-86
2022/05/25 04:34:13;;;;;;;2.15;1.50;;;;;;;;;;5072872;28;20465;-87
2022/05/25 04:36:41;;;;;;;2.40;1.50;;;;;;;;;;5071972;28;20131;-86
2022/05/25 04:39:09;;;;;;;2.05;1.80;;;;;;;;;;5072358;28;20048;-86
2022/05/25 04:41:36;;;;;;;2.13;1.63;;;;;;;;;;5072063;28;20358;-87
2022/05/25 04:44:04;;;;;;;4.20;1.63;;;;;;;;;;5072126;28;20053;-86
2022/05/25 04:46:31;;;;;;;4.80;1.67;;;;;;;;;;5071614;28;20488;-86
2022/05/25 04:49:00;;;;;;;5.47;1.80;;;;;;;;;;5072757;28;20458;-87
2022/05/25 04:51:30;;;;;;;9.55;2.20;;;;;;;;;;5073032;28;20049;-87
2022/05/25 04:53:57;;;;;;;1.75;1.60;;;;;;;;;;5071780;28;20044;-87
2022/05/25 04:59:27;;;;;;;4.35;1.70;;;;;;;;;;5030846;28;20160;-87
2022/05/25 05:01:54;;;;;;;2.80;1.55;;;;;;;;;;5059831;28;20408;-87
2022/05/25 05:04:22;;;;;;;6.22;1.73;;;;;;;;;;5088170;28;20052;-86
2022/05/25 05:06:50;;;;;;;2.05;1.63;;;;;;;;;;5072912;28;20117;-86
2022/05/25 05:09:17;;;;;;;1.20;1.20;;;;;;;;;;5072679;28;20386;-86
2022/05/25 05:11:45;;;;;;;1.75;1.65;;;;;;;;;;5088303;28;20095;-87
2022/05/25 05:14:14;;;;;;;2.67;1.60;;;;;;;;;;5088407;28;20079;-87
2022/05/25 05:16:41;;;;;;;6.85;1.85;;;;;;;;;;5088596;28;20104;-87
2022/05/25 05:19:09;;;;;;;3.50;1.90;;;;;;;;;;5088574;28;20481;-87
2022/05/25 05:21:36;;;;;;;1.60;1.48;;;;;;;;;;5072666;28;20052;-87
2022/05/25 05:24:03;;;;;;;3.25;1.33;;;;;;;;;;5088831;28;20059;-86
2022/05/25 05:26:30;;;;;;;1.95;1.17;;;;;;;;;;5092250;28;20429;-87
2022/05/25 05:28:57;;;;;;;1.33;1.20;;;;;;;;;;5092306;28;20084;-87
2022/05/25 05:31:24;;;;;;;1.02;0.98;;;;;;;;;;5076759;28;20045;-87
2022/05/25 05:33:52;;;;;;;1.58;0.90;;;;;;;;;;5076592;28;20080;-86
2022/05/25 05:36:21;;;;;;;1.05;1.00;;;;;;;;;;5092127;28;20135;-86
2022/05/25 05:38:53;;;;;;;1.55;1.40;;;;;;;;;;5091985;28;20131;-86
2022/05/25 05:41:23;;;;;;;1.90;1.10;;;;;;;;;;5076551;28;20098;-87
2022/05/25 05:43:50;;;;;;;4.53;1.35;;;;;;;;;;5076245;28;20315;-87
2022/05/25 05:46:17;;;;;;;1.33;1.23;;;;;;;;;;5092193;28;20052;-87
2022/05/25 05:48:45;;;;;;;9.95;1.98;;;;;;;;;;5076043;28;20051;-87
2022/05/25 05:51:12;;;;;;;6.63;1.63;;;;;;;;;;5091984;28;20063;-87
2022/05/25 05:53:40;;;;;;;1.70;1.42;;;;;;;;;;5091881;28;20538;-87
2022/05/25 05:56:08;;;;;;;6.20;1.95;;;;;;;;;;5091941;28;20504;-87
2022/05/25 05:58:35;;;;;;;4.47;1.48;;;;;;;;;;5076067;28;20049;-87
2022/05/25 06:01:03;;;;;;;2.42;1.00;;;;;;;;;;5091984;28;20056;-86
2022/05/25 06:03:30;;;;;;;3.15;1.30;;;;;;;;;;5091740;28;20045;-87
2022/05/25 06:05:57;;;;;;;5.38;2.53;;;;;;;;;;5091732;28;20135;-87
2022/05/25 06:08:26;;;;;;;5.82;2.45;;;;;;;;;;5076250;28;20471;-86
2022/05/25 06:10:55;;;;;;;9.02;2.05;;;;;;;;;;5076029;28;20072;-86
2022/05/25 06:13:22;;;;;;;4.15;1.40;;;;;;;;;;5091789;28;20048;-86
2022/05/25 06:21:23;;;;;;;1.10;0.98;;;;;;;;;;5076362;28;20488;-87
2022/05/25 06:23:52;;;;;;;4.78;1.10;;;;;;;;;;5091859;28;20135;-85
2022/05/25 06:26:19;;;;;;;3.15;1.30;;;;;;;;;;5075619;28;20072;-86
2022/05/25 06:28:46;;;;;;;1.65;1.15;;;;;;;;;;5075003;28;20105;-86
2022/05/25 06:31:14;;;;;;;6.25;1.27;;;;;;;;;;5091728;28;20041;-86
2022/05/25 06:33:43;;;;;;;4.72;1.40;;;;;;;;;;5075589;28;20523;-87
2022/05/25 06:36:11;;;;;;;3.50;1.25;;;;;;;;;;5074796;28;20045;-86
2022/05/25 06:38:38;;;;;;;9.05;1.20;;;;;;;;;;5091271;28;20132;-86
2022/05/25 06:41:05;;;;;;;3.47;1.10;;;;;;;;;;5075243;28;20556;-86
2022/05/25 06:43:32;;;;;;;8.80;1.60;;;;;;;;;;5091298;28;20074;-86
2022/05/25 06:46:00;;;;;;;9.90;1.85;;;;;;;;;;5075558;28;20094;-86
2022/05/25 06:48:30;;;;;;;3.17;1.40;;;;;;;;;;5090628;28;20122;-87
2022/05/25 06:50:57;;;;;;;3.30;0.98;;;;;;;;;;5075484;28;20053;-87
2022/05/25 06:53:25;;;;;;;3.33;1.00;;;;;;;;;;5075150;28;20098;-87
2022/05/25 06:55:52;;;;;;;1.17;0.65;;;;;;;;;;5090180;28;20099;-87
2022/05/25 06:58:19;;;;;;;2.03;0.95;;;;;;;;;;5075138;28;20094;-86
2022/05/25 07:00:46;;;;;;;1.77;0.70;;;;;;;;;;5075041;28;20135;-87
2022/05/25 07:03:14;;;;;;;5.07;1.00;;;;;;;;;;5091042;28;20140;-86
2022/05/25 07:05:41;;;;;;;4.93;0.90;;;;;;;;;;5090506;28;20575;-85
2022/05/25 07:08:08;;;;;;;5.32;1.00;;;;;;;;;;5089375;28;20045;-87
2022/05/25 07:10:35;;;;;;;17.77;2.90;;;;;;;;;;5090709;28;20140;-86
2022/05/25 07:13:03;;;;;;;13.45;2.58;;;;;;;;;;5090602;28;20483;-85
2022/05/25 07:15:30;;;;;;;8.70;2.50;;;;;;;;;;5090337;28;20076;-85
2022/05/25 07:18:00;;;;;;;11.40;1.73;;;;;;;;;;5090203;28;20048;-85
2022/05/25 07:20:27;;;;;;;5.25;1.60;;;;;;;;;;5090528;28;20053;-86
2022/05/25 07:22:54;;;;;;;22.77;3.28;;;;;;;;;;5090372;28;20106;-85
2022/05/25 07:25:22;;;;;;;22.80;2.97;;;;;;;;;;5090425;28;20583;-85
2022/05/25 07:27:49;;;;;;;4.88;1.02;;;;;;;;;;5090459;28;20048;-86
2022/05/25 07:30:16;;;;;;;12.02;2.47;;;;;;;;;;5074673;28;20079;-86
2022/05/25 07:32:44;;;;;;;21.67;3.40;;;;;;;;;;5074514;28;20055;-85
2022/05/25 07:35:13;;;;;;;6.13;1.00;;;;;;;;;;5089652;28;20052;-85
2022/05/25 07:37:42;;;;;;;2.50;0.88;;;;;;;;;;5090315;28;20052;-84
2022/05/25 07:40:15;;;;;;;1.70;0.50;;;;;;;;;;5090892;28;20135;-84
2022/05/25 07:42:45;;;;;;;0.47;0.47;;;;;;;;;;5090140;28;20052;-84
2022/05/25 07:45:12;;;;;;;3.97;0.82;;;;;;;;;;5074108;28;20154;-84
2022/05/25 07:47:39;;;;;;;0.85;0.60;;;;;;;;;;5089298;28;20473;-84
2022/05/25 07:50:07;;;;;;;1.60;0.52;;;;;;;;;;5089670;28;20052;-84
2022/05/25 07:52:36;;;;;;;7.53;1.35;;;;;;;;;;5089994;28;20123;-85
2022/05/25 07:55:05;;;;;;;4.15;1.15;;;;;;;;;;5089708;28;20084;-85
2022/05/25 07:57:32;;;;;;;9.45;1.30;;;;;;;;;;5073849;28;20052;-86
2022/05/25 07:59:59;;;;;;;4.18;1.25;;;;;;;;;;5071894;28;20131;-85
2022/05/25 08:08:09;;;;;;;7.40;1.40;;;;;;;;;;5073896;28;20407;-85
2022/05/25 08:10:36;;;;;;;10.10;1.80;;;;;;;;;;5073662;28;20048;-86
2022/05/25 08:13:04;;;;;;;12.43;1.60;;;;;;;;;;5073043;28;20481;-86
2022/05/25 08:15:33;;;;;;;3.60;0.88;;;;;;;;;;5073428;28;20044;-87
2022/05/25 08:18:00;;;;;;;3.70;0.63;;;;;;;;;;5072431;28;20055;-85
2022/05/25 08:20:30;;;;;;;0.38;0.38;;;;;;;;;;5073682;28;20075;-84
2022/05/25 08:22:58;;;;;;;1.23;0.40;;;;;;;;;;5072087;28;20052;-84
2022/05/25 08:25:25;;;;;;;0.85;0.40;;;;;;;;;;5073144;28;20108;-85
2022/05/25 08:27:52;;;;;;;3.03;0.43;;;;;;;;;;5071710;28;20106;-86
2022/05/25 08:30:20;;;;;;;2.47;0.52;;;;;;;;;;5072551;28;20048;-85
2022/05/25 08:32:47;;;;;;;1.60;0.47;;;;;;;;;;5072438;28;20055;-85
2022/05/25 08:35:15;;;;;;;1.40;0.60;;;;;;;;;;5072145;28;20048;-85
2022/05/25 08:37:42;;;;;;;0.95;0.40;;;;;;;;;;5072445;28;20102;-86
2022/05/25 08:40:11;;;;;;;0.45;0.30;;;;;;;;;;5072317;28;20488;-85
2022/05/25 08:42:53;;;;;;;2.08;0.70;;;;;;;;;;5072138;28;20143;-85
2022/05/25 08:45:22;;;;;;;1.75;0.52;;;;;;;;;;5072086;28;20036;-84
2022/05/25 08:47:51;;;;;;;1.70;0.50;;;;;;;;;;5072881;28;20094;-85
2022/05/25 08:50:18;;;;;;;1.23;0.35;;;;;;;;;;5071949;28;20131;-84
2022/05/25 08:52:46;;;;;;;1.42;0.30;;;;;;;;;;5071936;28;20135;-84
2022/05/25 08:55:23;;;;;;;1.95;0.50;;;;;;;;;;5071976;28;20465;-84
2022/05/25 08:57:54;;;;;;;5.40;0.57;;;;;;;;;;5035870;28;20049;-85
2022/05/25 09:00:23;;;;;;;6.78;0.63;;;;;;;;;;5052943;28;20132;-85
2022/05/25 09:02:57;;;;;;;2.85;0.35;;;;;;;;;;5051630;28;20497;-85
2022/05/25 09:05:24;;;;;;;0.50;0.30;;;;;;;;;;5051797;28;20053;-85
2022/05/25 09:08:10;;;;;;;2.42;0.50;;;;;;;;;;5051912;28;20053;-87
2022/05/25 09:10:42;;;;;;;1.23;0.40;;;;;;;;;;5051966;28;20049;-86
2022/05/25 09:13:14;;;;;;;4.15;0.40;;;;;;;;;;5051702;28;20126;-85
2022/05/25 09:18:34;;;;;;;2.00;0.32;;;;;;;;;;5052911;28;20543;-85
2022/05/25 09:21:05;;;;;;;2.55;0.50;;;;;;;;;;5053205;28;20045;-85
2022/05/25 09:23:32;;;;;;;2.58;0.57;;;;;;;;;;5051534;28;20045;-85
2022/05/25 09:26:00;;;;;;;2.92;0.50;;;;;;;;;;5052561;28;20105;-86
2022/05/25 09:28:33;;;;;;;2.42;0.30;;;;;;;;;;5051612;28;20131;-84
2022/05/25 09:31:02;;;;;;;4.60;0.45;;;;;;;;;;5051701;28;20470;-85
2022/05/25 09:33:38;;;;;;;3.35;0.45;;;;;;;;;;5052886;28;20049;-85
2022/05/25 09:36:14;;;;;;;3.67;0.30;;;;;;;;;;5051482;28;20126;-83
2022/05/25 09:38:43;;;;;;;3.88;0.55;;;;;;;;;;5052580;28;20472;-86
2022/05/25 09:41:12;;;;;;;0.63;0.20;;;;;;;;;;5051354;28;20072;-87
2022/05/25 09:43:40;;;;;;;3.78;0.40;;;;;;;;;;5051661;28;20045;-85
2022/05/25 09:46:10;;;;;;;9.65;0.73;;;;;;;;;;5051359;28;20049;-84
2022/05/25 09:48:42;;;;;;;2.13;0.45;;;;;;;;;;5051092;28;20048;-88
2022/05/25 09:51:22;;;;;;;6.18;0.50;;;;;;;;;;5051780;28;20122;-85
2022/05/25 09:54:00;;;;;;;3.58;0.47;;;;;;;;;;5051411;28;20056;-85
2022/05/25 09:56:28;;;;;;;1.33;0.30;;;;;;;;;;5054334;28;20168;-84
2022/05/25 09:58:56;;;;;;;1.27;0.30;;;;;;;;;;5054365;28;20072;-85
2022/05/25 10:01:27;;;;;;;0.68;0.30;;;;;;;;;;5054582;28;20401;-84
2022/05/25 10:03:55;;;;;;;1.75;0.38;;;;;;;;;;5072070;28;20045;-86
2022/05/25 10:06:23;;;;;;;0.75;0.20;;;;;;;;;;5072149;28;20095;-84
2022/05/25 10:08:53;;;;;;;1.92;0.30;;;;;;;;;;5054428;28;20052;-84
2022/05/25 10:11:32;;;;;;;1.65;0.40;;;;;;;;;;5073247;28;20127;-83
2022/05/25 10:14:18;;;;;;;2.13;0.47;;;;;;;;;;5058673;28;20131;-85
2022/05/25 10:16:46;;;;;;;1.50;0.40;;;;;;;;;;5057946;28;20052;-84
2022/05/25 10:19:17;;;;;;;0.80;0.15;;;;;;;;;;5058252;28;20143;-83
2022/05/25 10:21:52;;;;;;;1.48;0.20;;;;;;;;;;5057541;28;20102;-84
2022/05/25 10:24:29;;;;;;;2.75;0.30;;;;;;;;;;5057850;28;20419;-83
2022/05/25 10:26:58;;;;;;;1.75;0.32;;;;;;;;;;5058079;28;20094;-85
2022/05/25 10:38:11;;;;;;;0.85;0.30;;;;;;;;;;5075351;28;20051;-83
2022/05/25 10:40:42;;;;;;;0.93;0.20;;;;;;;;;;5057378;28;20481;-84
2022/05/25 10:43:26;;;;;;;3.42;0.40;;;;;;;;;;5059440;28;20048;-84
2022/05/25 10:45:54;;;;;;;6.40;0.70;;;;;;;;;;5057407;28;20072;-84
2022/05/25 10:48:29;;;;;;;0.40;0.20;;;;;;;;;;5075010;28;20412;-85
2022/05/25 10:50:58;;;;;;;2.53;0.30;;;;;;;;;;5057108;28;20131;-88
2022/05/25 10:54:44;;;;;;;1.58;0.40;;;;;;;;;;5059830;28;20057;-85
2022/05/25 10:56:41;;;;;;;1.17;0.30;;;;;;;;;;5064271;28;20059;-84
2022/05/25 10:59:20;;;;;;;0.57;0.28;;;;;;;;;;5054894;28;20047;-87
2022/05/25 11:02:03;;;;;;;0.73;0.40;;;;;;;;;;5053472;28;20544;-84
2022/05/25 11:05:00;;;;;;;1.88;0.20;;;;;;;;;;5053784;28;20049;-83
2022/05/25 11:07:38;;;;;;;1.35;0.20;;;;;;;;;;5054732;28;20085;-87
2022/05/25 11:10:24;;;;;;;2.78;0.55;;;;;;;;;;5054509;28;20049;-82
2022/05/25 11:12:51;;;;;;;1.13;0.28;;;;;;;;;;5053237;28;20468;-84
2022/05/25 11:15:34;;;;;;;2.00;0.20;;;;;;;;;;5053424;28;20128;-86
2022/05/25 11:18:18;;;;;;;3.13;0.43;;;;;;;;;;5053243;28;20045;-83
2022/05/25 11:20:57;;;;;;;0.68;0.20;;;;;;;;;;5053332;28;20662;-84
2022/05/25 11:23:34;;;;;;;11.35;1.33;;;;;;;;;;5052947;28;20049;-84
2022/05/25 11:26:13;;;;;;;0.38;0.30;;;;;;;;;;5054340;28;20547;-84
2022/05/25 11:29:19;;;;;;;1.92;0.25;;;;;;;;;;5053421;28;20056;-84
2022/05/25 11:32:00;;;;;;;1.23;0.30;;;;;;;;;;5053379;28;20063;-84
2022/05/25 11:34:46;;;;;;;1.92;0.20;;;;;;;;;;5053106;28;20049;-84
2022/05/25 11:37:13;;;;;;;3.13;0.35;;;;;;;;;;5054032;28;20092;-84
2022/05/25 11:39:53;;;;;;;7.90;0.40;;;;;;;;;;5054197;28;20135;-85
2022/05/25 11:42:34;;;;;;;1.30;0.30;;;;;;;;;;5053054;28;20139;-83
2022/05/25 11:45:16;;;;;;;4.30;0.55;;;;;;;;;;5053581;28;20080;-83
2022/05/25 11:47:47;;;;;;;0.88;0.28;;;;;;;;;;5052661;28;20053;-83
2022/05/25 11:50:25;;;;;;;0.93;0.30;;;;;;;;;;5052705;28;20051;-85
2022/05/25 11:52:59;;;;;;;2.17;0.20;;;;;;;;;;5054054;28;20076;-85
2022/05/25 11:55:29;;;;;;;2.15;0.30;;;;;;;;;;5052159;28;20404;-87
2022/05/25 11:58:00;;;;;;;1.75;0.30;;;;;;;;;;5052579;28;20140;-84
2022/05/25 12:00:39;;;;;;;2.92;0.40;;;;;;;;;;5052750;28;20510;-81
2022/05/25 12:03:22;;;;;;;6.82;0.40;;;;;;;;;;5052464;28;20493;-82
2022/05/25 12:06:04;;;;;;;4.22;0.57;;;;;;;;;;5052123;28;20476;-82
2022/05/25 12:08:31;;;;;;;2.38;0.45;;;;;;;;;;5053312;28;20049;-84
2022/05/25 12:11:06;;;;;;;1.25;0.30;;;;;;;;;;5052652;28;20053;-87
2022/05/25 12:13:38;;;;;;;3.33;0.55;;;;;;;;;;5053787;28;20570;-82
2022/05/25 12:16:13;;;;;;;0.57;0.28;;;;;;;;;;5052085;28;20053;-83
2022/05/25 12:18:43;;;;;;;8.80;0.40;;;;;;;;;;5051876;28;20166;-84
2022/05/25 12:21:15;;;;;;;1.58;0.20;;;;;;;;;;5052219;28;20044;-82
2022/05/25 12:23:48;;;;;;;1.93;0.40;;;;;;;;;;5051935;28;20135;-85
2022/05/25 12:26:18;;;;;;;1.08;0.30;;;;;;;;;;5052205;28;20136;-83
2022/05/25 12:28:46;;;;;;;3.20;0.43;;;;;;;;;;5052687;28;20045;-83
2022/05/25 12:31:19;;;;;;;4.75;0.63;;;;;;;;;;5053194;28;20045;-84
2022/05/25 12:33:48;;;;;;;2.17;0.20;;;;;;;;;;5052290;28;20045;-83
2022/05/25 12:36:16;;;;;;;0.85;0.28;;;;;;;;;;5052989;28;20048;-82
2022/05/25 12:38:43;;;;;;;3.03;0.35;;;;;;;;;;5052767;28;20140;-83
2022/05/25 12:41:26;;;;;;;2.45;0.50;;;;;;;;;;5051565;28;20144;-82
2022/05/25 12:43:54;;;;;;;0.70;0.30;;;;;;;;;;5052593;28;20055;-82
2022/05/25 12:49:30;;;;;;;5.47;0.35;;;;;;;;;;5053038;28;20135;-83
2022/05/25 12:51:57;;;;;;;7.50;0.88;;;;;;;;;;5052742;28;20135;-86
2022/05/25 12:54:28;;;;;;;4.88;0.50;;;;;;;;;;5051433;28;20071;-82
2022/05/25 12:56:56;;;;;;;9.52;1.10;;;;;;;;;;5051181;28;20090;-84
2022/05/25 12:59:37;;;;;;;7.88;0.60;;;;;;;;;;5051377;28;20064;-82
2022/05/25 13:02:05;;;;;;;5.78;0.98;;;;;;;;;;5027348;28;20497;-83
2022/05/25 13:04:55;;;;;;;4.85;0.70;;;;;;;;;;5050955;28;20059;-83
2022/05/25 13:07:29;;;;;;;1.40;0.38;;;;;;;;;;5025309;28;20072;-83
2022/05/25 13:09:56;;;;;;;0.85;0.40;;;;;;;;;;5051231;28;20044;-83
2022/05/25 13:12:45;;;;;;;2.17;0.50;;;;;;;;;;5051482;28;20053;-84
2022/05/25 13:15:16;;;;;;;0.47;0.25;;;;;;;;;;5051088;28;20049;-85
2022/05/25 13:17:46;;;;;;;3.72;0.30;;;;;;;;;;5052202;28;20493;-82
2022/05/25 13:20:14;;;;;;;2.15;0.40;;;;;;;;;;5051457;28;20080;-82
2022/05/25 13:22:42;;;;;;;2.17;0.28;;;;;;;;;;5052274;28;20140;-83
2022/05/25 13:25:12;;;;;;;1.88;0.30;;;;;;;;;;5051956;28;20140;-82
2022/05/25 13:27:53;;;;;;;4.70;0.65;;;;;;;;;;5052081;28;20049;-82
2022/05/25 13:30:23;;;;;;;0.80;0.28;;;;;;;;;;5051146;28;20139;-84
2022/05/25 13:32:51;;;;;;;2.47;0.32;;;;;;;;;;5051163;28;20136;-83
2022/05/25 13:35:21;;;;;;;0.80;0.20;;;;;;;;;;5051040;28;20049;-83
2022/05/25 13:38:00;;;;;;;1.38;0.20;;;;;;;;;;5050848;28;20569;-86
2022/05/25 13:40:31;;;;;;;1.83;0.22;;;;;;;;;;5051393;28;20080;-85
2022/05/25 13:43:00;;;;;;;1.92;0.30;;;;;;;;;;5051128;28;20239;-86
2022/05/25 13:45:29;;;;;;;1.30;0.40;;;;;;;;;;5053517;28;20512;-84
2022/05/25 13:47:57;;;;;;;1.33;0.20;;;;;;;;;;5055191;28;20390;-83
2022/05/25 13:50:35;;;;;;;3.63;0.30;;;;;;;;;;5055667;28;20131;-84
2022/05/25 13:53:06;;;;;;;2.42;0.38;;;;;;;;;;5055007;28;20059;-84
2022/05/25 13:55:35;;;;;;;3.70;0.30;;;;;;;;;;5054516;28;20103;-83
2022/05/25 13:58:08;;;;;;;4.00;0.50;;;;;;;;;;5054802;28;20481;-84
2022/05/25 14:00:47;;;;;;;0.40;0.20;;;;;;;;;;5055517;28;20122;-83
2022/05/25 14:03:17;;;;;;;1.85;0.30;;;;;;;;;;5054525;28;20123;-83
2022/05/25 14:05:44;;;;;;;1.30;0.30;;;;;;;;;;5055712;28;20052;-83
2022/05/25 14:11:36;;;;;;;0.90;0.40;;;;;;;;;;5011355;28;20059;-83
2022/05/25 14:14:09;;;;;;;5.78;0.40;;;;;;;;;;5054403;28;20075;-81
2022/05/25 14:16:36;;;;;;;1.25;0.30;;;;;;;;;;5053797;28;20136;-82
2022/05/25 14:19:05;;;;;;;4.25;1.13;;;;;;;;;;5054130;28;20049;-84
2022/05/25 14:21:40;;;;;;;0.40;0.40;;;;;;;;;;5053771;28;20098;-83
2022/05/25 14:24:16;;;;;;;0.80;0.15;;;;;;;;;;5053858;28;20128;-83
2022/05/25 14:26:49;;;;;;;0.25;0.20;;;;;;;;;;5053968;28;20051;-84
2022/05/25 14:29:19;;;;;;;2.05;0.38;;;;;;;;;;5053853;28;20048;-84
2022/05/25 14:31:47;;;;;;;3.40;0.35;;;;;;;;;;5053777;28;20095;-85
2022/05/25 14:34:18;;;;;;;0.47;0.28;;;;;;;;;;5054797;28;20045;-84
2022/05/25 14:36:52;;;;;;;1.98;0.50;;;;;;;;;;5053785;28;20558;-83
2022/05/25 14:39:22;;;;;;;0.30;0.20;;;;;;;;;;5053603;28;20400;-83
2022/05/25 14:41:52;;;;;;;1.92;0.30;;;;;;;;;;5054904;28;20171;-84
2022/05/25 14:44:50;;;;;;;3.80;0.35;;;;;;;;;;5053570;28;20136;-84
2022/05/25 14:47:24;;;;;;;0.68;0.43;;;;;;;;;;5021558;28;20049;-84
2022/05/25 14:49:57;;;;;;;0.93;0.30;;;;;;;;;;5053854;28;20489;-84
2022/05/25 14:52:27;;;;;;;0.52;0.20;;;;;;;;;;5054764;28;20087;-83
2022/05/25 14:55:02;;;;;;;4.47;0.30;;;;;;;;;;5053679;28;20167;-84
2022/05/25 14:57:30;;;;;;;5.50;0.43;;;;;;;;;;5083176;28;20054;-84
2022/05/25 14:59:58;;;;;;;9.13;0.68;;;;;;;;;;5090200;28;20047;-82
2022/05/25 15:02:37;;;;;;;0.90;0.45;;;;;;;;;;5074607;28;20177;-87
2022/05/25 15:05:21;;;;;;;0.70;0.40;;;;;;;;;;5072387;28;20084;-82
2022/05/25 15:07:48;;;;;;;;;;;;;;;;;;5088615;28;20091;-84
2022/05/25 15:10:17;;;;;;;1.40;0.30;;;;;;;;;;5066723;28;19921;-84
2022/05/25 15:12:45;;;;;;;0.50;0.20;;;;;;;;;;5089682;28;20408;-86
2022/05/25 15:20:54;;;;;;;2.33;0.30;;;;;;;;;;5073831;28;20063;-84
2022/05/25 15:23:28;;;;;;;2.22;0.30;;;;;;;;;;5083959;28;20053;-85
2022/05/25 15:25:55;;;;;;;;;;;;;;;;;;5089560;28;20072;-84
2022/05/25 15:28:25;;;;;;;0.45;0.22;;;;;;;;;;5066950;28;19975;-84
2022/05/25 15:30:57;;;;;;;11.25;1.45;;;;;;;;;;5073802;28;20052;-85
2022/05/25 15:33:26;;;;;;;2.33;0.20;;;;;;;;;;5084143;28;20052;-85
2022/05/25 15:35:59;;;;;;;2.03;0.30;;;;;;;;;;5089297;28;20060;-89
2022/05/25 15:38:27;;;;;;;2.35;0.30;;;;;;;;;;5084544;28;20067;-89
2022/05/25 15:40:55;;;;;;;0.60;0.30;;;;;;;;;;5089198;28;20052;-85
2022/05/25 15:43:23;;;;;;;3.78;0.45;;;;;;;;;;5083432;28;20136;-84
2022/05/25 15:45:51;;;;;;;3.05;0.52;;;;;;;;;;5073269;28;20087;-85
2022/05/25 15:48:25;;;;;;;4.05;0.55;;;;;;;;;;5082910;28;20063;-84
2022/05/25 15:50:52;;;;;;;1.90;1.10;;;;;;;;;;5073163;28;20048;-84